createdAt,value
2023-01-29T00:00:40.076Z,12.67
2023-01-29T00:03:09.190Z,12.80
2023-01-29T00:05:39.948Z,12.73
2023-01-29T00:08:09.173Z,12.93
2023-01-29T00:10:38.066Z,13.83
2023-01-29T00:13:07.061Z,12.17
2023-01-29T00:15:36.007Z,11.23
2023-01-29T00:18:05.063Z,11.30
2023-01-29T00:20:34.077Z,11.53
2023-01-29T00:23:04.943Z,11.13
2023-01-29T00:25:33.716Z,10.63
2023-01-29T00:28:02.719Z,10.80
2023-01-29T00:30:31.703Z,10.33
2023-01-29T00:33:00.735Z,9.87
2023-01-29T00:35:30.104Z,9.77
2023-01-29T00:37:59.429Z,10.17
2023-01-29T00:40:50.216Z,9.50
2023-01-29T00:43:36.201Z,8.67
2023-01-29T00:46:06.576Z,8.67
2023-01-29T00:48:35.674Z,9.40
2023-01-29T00:51:04.904Z,9.80
2023-01-29T00:53:33.800Z,9.13
2023-01-29T00:56:04.123Z,9.77
2023-01-29T00:58:34.503Z,10.30
2023-01-29T01:01:03.740Z,10.33
2023-01-29T01:03:33.987Z,9.97
2023-01-29T01:06:06.770Z,10.80
2023-01-29T01:08:52.753Z,10.57
2023-01-29T01:11:23.476Z,10.53
2023-01-29T01:13:52.569Z,10.53
2023-01-29T01:16:21.923Z,11.27
2023-01-29T01:18:50.768Z,10.27
2023-01-29T01:21:19.741Z,11.27
2023-01-29T01:23:51.847Z,11.03
2023-01-29T01:26:22.327Z,11.00
2023-01-29T01:28:51.242Z,10.10
2023-01-29T01:31:20.377Z,9.97
2023-01-29T01:33:51.394Z,10.77
2023-01-29T01:36:22.003Z,10.90
2023-01-29T01:38:50.822Z,10.53
2023-01-29T01:41:22.923Z,8.80
2023-01-29T01:43:56.016Z,8.17
2023-01-29T01:46:25.641Z,8.90
2023-01-29T01:48:59.515Z,8.00
2023-01-29T01:51:32.280Z,8.60
2023-01-29T01:54:05.516Z,7.90
2023-01-29T01:56:40.764Z,8.47
2023-01-29T01:59:15.332Z,7.83
2023-01-29T02:01:51.295Z,8.23
2023-01-29T02:04:41.149Z,8.33
2023-01-29T02:07:31.951Z,7.77
2023-01-29T02:10:08.776Z,8.87
2023-01-29T02:12:38.720Z,8.20
2023-01-29T02:15:11.440Z,8.33
2023-01-29T02:17:41.239Z,8.33
2023-01-29T02:20:19.220Z,8.47
2023-01-29T02:23:15.715Z,8.70
2023-01-29T02:26:20.830Z,9.03
2023-01-29T02:28:58.138Z,9.23
2023-01-29T02:31:36.275Z,8.70
2023-01-29T02:34:12.863Z,9.53
2023-01-29T02:36:48.881Z,10.37
2023-01-29T02:39:25.703Z,10.70
2023-01-29T02:42:01.833Z,9.87
2023-01-29T02:44:39.970Z,9.47
2023-01-29T02:47:18.359Z,9.83
2023-01-29T02:49:52.595Z,9.63
2023-01-29T02:52:23.917Z,9.00
2023-01-29T02:54:56.960Z,10.20
2023-01-29T02:57:30.290Z,9.40
2023-01-29T03:00:07.065Z,10.70
2023-01-29T03:02:43.175Z,10.07
2023-01-29T03:05:17.628Z,9.00
2023-01-29T03:07:54.720Z,9.17
2023-01-29T03:10:36.371Z,8.47
2023-01-29T03:13:11.032Z,10.00
2023-01-29T03:15:46.951Z,8.43
2023-01-29T03:18:45.998Z,9.80
2023-01-29T03:21:38.230Z,8.57
2023-01-29T03:24:27.633Z,8.27
2023-01-29T03:27:17.386Z,7.90
2023-01-29T03:30:06.504Z,7.53
2023-01-29T03:33:02.271Z,7.77
2023-01-29T03:35:37.600Z,8.47
2023-01-29T03:38:10.193Z,7.83
2023-01-29T03:40:47.630Z,6.53
2023-01-29T03:43:29.311Z,8.33
2023-01-29T03:46:06.040Z,7.20
2023-01-29T03:48:40.697Z,7.07
2023-01-29T03:51:17.896Z,6.83
2023-01-29T03:53:54.793Z,6.30
2023-01-29T03:56:35.538Z,6.50
2023-01-29T03:59:15.008Z,7.07
2023-01-29T04:02:08.717Z,7.17
2023-01-29T04:04:41.348Z,6.60
2023-01-29T04:07:13.966Z,7.00
2023-01-29T04:09:47.470Z,6.60
2023-01-29T04:12:21.797Z,6.93
2023-01-29T04:14:53.827Z,6.80
2023-01-29T04:17:27.216Z,6.50
2023-01-29T04:20:19.597Z,6.33
2023-01-29T04:22:51.345Z,6.43
2023-01-29T04:25:26.551Z,6.60
2023-01-29T04:28:05.841Z,6.30
2023-01-29T04:30:45.914Z,6.90
2023-01-29T04:33:29.405Z,6.83
2023-01-29T04:36:12.047Z,6.53
2023-01-29T04:38:54.091Z,5.97
2023-01-29T04:41:28.302Z,6.30
2023-01-29T04:44:03.558Z,6.07
2023-01-29T04:46:37.415Z,6.50
2023-01-29T04:49:18.759Z,5.47
2023-01-29T04:51:55.060Z,5.97
2023-01-29T04:54:34.797Z,5.73
2023-01-29T04:57:11.666Z,5.87
2023-01-29T04:59:44.097Z,5.53
2023-01-29T05:02:14.561Z,6.80
2023-01-29T05:04:45.733Z,6.10
2023-01-29T05:07:17.107Z,5.87
2023-01-29T05:09:47.552Z,6.13
2023-01-29T05:12:19.025Z,6.23
2023-01-29T05:14:49.354Z,6.17
2023-01-29T05:17:21.519Z,6.27
2023-01-29T05:19:50.835Z,6.47
2023-01-29T05:22:23.190Z,6.73
2023-01-29T05:24:52.108Z,6.60
2023-01-29T05:27:41.838Z,6.97
2023-01-29T05:30:11.543Z,6.27
2023-01-29T05:32:40.917Z,7.20
2023-01-29T05:35:10.197Z,7.07
2023-01-29T05:37:40.728Z,6.50
2023-01-29T05:40:10.799Z,6.67
2023-01-29T05:42:39.747Z,6.90
2023-01-29T05:45:10.316Z,6.80
2023-01-29T05:47:39.364Z,6.80
2023-01-29T05:50:09.597Z,7.67
2023-01-29T05:52:39.999Z,7.33
2023-01-29T05:55:10.836Z,7.20
2023-01-29T05:57:41.533Z,7.07
2023-01-29T06:00:13.191Z,7.67
2023-01-29T06:02:42.301Z,7.33
2023-01-29T06:05:11.186Z,8.83
2023-01-29T06:07:45.331Z,7.57
2023-01-29T06:10:15.868Z,8.27
2023-01-29T06:12:45.558Z,7.30
2023-01-29T06:15:15.498Z,7.77
2023-01-29T06:17:44.889Z,7.93
2023-01-29T06:20:14.032Z,7.70
2023-01-29T06:22:44.525Z,7.57
2023-01-29T06:25:13.353Z,8.33
2023-01-29T06:27:42.036Z,7.47
2023-01-29T06:30:12.295Z,8.23
2023-01-29T06:32:41.461Z,7.67
2023-01-29T06:35:11.070Z,7.83
2023-01-29T06:37:40.169Z,7.37
2023-01-29T06:40:13.344Z,7.63
2023-01-29T06:42:43.026Z,8.77
2023-01-29T06:45:13.540Z,7.40
2023-01-29T06:47:42.597Z,8.20
2023-01-29T06:50:13.044Z,7.90
2023-01-29T06:52:41.992Z,8.40
2023-01-29T06:55:13.485Z,8.27
2023-01-29T06:57:42.643Z,7.93
2023-01-29T07:00:13.021Z,9.27
2023-01-29T07:02:42.035Z,9.17
2023-01-29T07:05:11.127Z,9.73
2023-01-29T07:07:40.223Z,10.90
2023-01-29T07:10:11.737Z,10.00
2023-01-29T07:12:40.799Z,11.17
2023-01-29T07:15:12.785Z,11.27
2023-01-29T07:17:41.847Z,10.80
2023-01-29T07:20:13.134Z,11.53
2023-01-29T07:22:41.803Z,10.93
2023-01-29T07:25:12.248Z,10.63
2023-01-29T07:27:40.959Z,11.50
2023-01-29T07:30:10.843Z,12.23
2023-01-29T07:32:39.530Z,12.10
2023-01-29T07:35:08.968Z,12.77
2023-01-29T07:37:38.168Z,13.40
2023-01-29T07:40:11.269Z,11.90
2023-01-29T07:42:42.254Z,12.67
2023-01-29T07:45:12.182Z,13.13
2023-01-29T07:47:40.990Z,13.17
2023-01-29T07:50:11.136Z,12.77
2023-01-29T07:52:39.876Z,12.97
2023-01-29T07:55:09.285Z,13.70
2023-01-29T07:57:38.198Z,12.97
2023-01-29T08:00:10.380Z,13.20
2023-01-29T08:02:43.183Z,12.73
2023-01-29T08:05:12.067Z,13.17
2023-01-29T08:07:41.121Z,13.87
2023-01-29T08:10:11.160Z,12.90
2023-01-29T08:12:39.995Z,13.73
2023-01-29T08:15:12.228Z,13.43
2023-01-29T08:17:56.039Z,13.40
2023-01-29T08:20:26.534Z,13.93
2023-01-29T08:23:01.520Z,12.80
2023-01-29T08:25:31.001Z,12.77
2023-01-29T08:28:01.094Z,14.27
2023-01-29T08:30:34.592Z,14.03
2023-01-29T08:33:05.535Z,13.03
2023-01-29T08:35:34.677Z,12.50
2023-01-29T08:38:05.329Z,13.43
2023-01-29T08:40:36.186Z,14.50
2023-01-29T08:43:09.184Z,13.20
2023-01-29T08:45:42.800Z,15.07
2023-01-29T08:48:12.216Z,14.43
2023-01-29T08:50:48.739Z,14.10
2023-01-29T08:53:19.513Z,14.73
2023-01-29T08:55:48.295Z,14.60
2023-01-29T08:58:17.091Z,13.77
2023-01-29T09:00:47.838Z,13.47
2023-01-29T09:03:16.772Z,14.37
2023-01-29T09:05:46.741Z,13.50
2023-01-29T09:08:15.522Z,15.40
2023-01-29T09:10:44.166Z,14.17
2023-01-29T09:13:12.879Z,14.07
2023-01-29T09:15:41.641Z,13.47
2023-01-29T09:18:11.677Z,13.40
2023-01-29T09:20:40.350Z,14.00
2023-01-29T09:23:10.715Z,13.83
2023-01-29T09:25:39.752Z,13.97
2023-01-29T09:28:08.427Z,14.70
2023-01-29T09:30:38.190Z,13.60
2023-01-29T09:33:07.988Z,15.47
2023-01-29T09:35:38.113Z,15.53
2023-01-29T09:38:06.775Z,14.53
2023-01-29T09:40:42.274Z,16.43
2023-01-29T09:43:16.949Z,16.53
2023-01-29T09:45:54.655Z,15.47
2023-01-29T09:48:27.109Z,15.73
2023-01-29T09:51:00.351Z,14.30
2023-01-29T09:53:33.752Z,15.33
2023-01-29T09:56:05.884Z,14.57
2023-01-29T09:58:37.261Z,15.10
2023-01-29T10:01:15.481Z,13.77
2023-01-29T10:04:15.674Z,15.10
2023-01-29T10:06:58.477Z,14.70
2023-01-29T10:10:07.652Z,13.77
2023-01-29T10:13:03.579Z,14.97
2023-01-29T10:15:53.391Z,15.03
2023-01-29T10:18:46.992Z,12.63
2023-01-29T10:21:58.496Z,13.53
2023-01-29T10:24:39.434Z,13.17
2023-01-29T10:27:16.516Z,13.27
2023-01-29T10:29:46.942Z,12.90
2023-01-29T10:32:18.525Z,13.43
2023-01-29T10:34:51.998Z,14.70
2023-01-29T10:37:24.309Z,14.47
2023-01-29T10:39:54.463Z,14.63
2023-01-29T10:42:32.111Z,14.33
2023-01-29T10:45:20.954Z,15.40
2023-01-29T10:48:12.811Z,15.07
2023-01-29T10:50:48.932Z,13.93
2023-01-29T10:53:41.124Z,15.40
2023-01-29T10:56:35.172Z,16.27
2023-01-29T10:59:09.860Z,15.43
2023-01-29T11:01:38.953Z,14.83
2023-01-29T11:04:12.963Z,15.53
2023-01-29T11:06:41.956Z,15.73
2023-01-29T11:12:16.428Z,16.27
2023-01-29T11:14:51.750Z,16.00
2023-01-29T11:17:22.933Z,16.70
2023-01-29T11:19:55.725Z,15.23
2023-01-29T11:22:26.648Z,15.67
2023-01-29T11:25:17.848Z,14.93
2023-01-29T11:27:50.520Z,17.33
2023-01-29T11:30:25.019Z,15.60
2023-01-29T11:33:01.756Z,15.63
2023-01-29T11:35:32.883Z,15.00
2023-01-29T11:38:10.503Z,16.03
2023-01-29T11:40:43.922Z,15.47
2023-01-29T11:43:32.659Z,16.40
2023-01-29T11:46:05.087Z,16.73
2023-01-29T11:48:42.111Z,16.60
2023-01-29T11:51:14.199Z,18.40
2023-01-29T11:53:46.070Z,17.43
2023-01-29T11:56:23.051Z,16.87
2023-01-29T11:58:57.641Z,18.00
2023-01-29T12:01:33.535Z,18.17
2023-01-29T12:04:04.014Z,17.77
2023-01-29T12:06:41.510Z,17.53
2023-01-29T12:09:16.977Z,17.07
2023-01-29T12:11:45.771Z,19.27
2023-01-29T12:14:33.673Z,17.50
2023-01-29T12:17:07.065Z,18.40
2023-01-29T12:19:40.811Z,17.93
2023-01-29T12:22:17.637Z,17.30
2023-01-29T12:24:53.425Z,17.67
2023-01-29T12:27:26.913Z,18.73
2023-01-29T12:30:05.036Z,18.27
2023-01-29T12:32:40.720Z,17.53
2023-01-29T12:35:20.556Z,19.67
2023-01-29T12:37:58.336Z,19.87
2023-01-29T12:40:34.459Z,18.37
2023-01-29T12:43:12.293Z,20.50
2023-01-29T12:45:47.342Z,19.00
2023-01-29T12:48:24.337Z,19.60
2023-01-29T12:50:55.044Z,19.13
2023-01-29T12:53:29.855Z,22.63
2023-01-29T12:56:03.818Z,22.23
2023-01-29T12:58:37.134Z,22.23
2023-01-29T13:01:16.885Z,21.20
2023-01-29T13:03:53.295Z,21.60
2023-01-29T13:06:27.997Z,21.83
2023-01-29T13:09:01.044Z,22.47
2023-01-29T13:11:35.451Z,20.90
2023-01-29T13:14:10.456Z,23.40
2023-01-29T13:16:45.597Z,20.83
2023-01-29T13:19:24.112Z,22.50
2023-01-29T13:21:55.218Z,22.33
2023-01-29T13:24:26.885Z,23.37
2023-01-29T13:26:56.253Z,21.63
2023-01-29T13:29:26.829Z,22.53
2023-01-29T13:32:00.097Z,22.70
2023-01-29T13:34:33.026Z,22.53
2023-01-29T13:37:04.715Z,22.10
2023-01-29T13:39:37.505Z,22.57
2023-01-29T13:42:20.858Z,22.23
2023-01-29T13:44:51.675Z,20.97
2023-01-29T13:47:27.799Z,22.33
2023-01-29T13:50:00.939Z,21.33
2023-01-29T13:52:39.840Z,23.10
2023-01-29T13:55:21.283Z,21.97
2023-01-29T13:58:05.360Z,21.23
2023-01-29T14:01:01.625Z,22.53
2023-01-29T14:04:05.748Z,20.93
2023-01-29T14:06:45.637Z,20.73
2023-01-29T14:09:48.998Z,20.53
2023-01-29T14:12:44.067Z,20.33
2023-01-29T14:15:32.411Z,20.07
2023-01-29T14:18:26.766Z,19.53
2023-01-29T14:21:03.263Z,19.50
2023-01-29T14:23:42.554Z,19.20
2023-01-29T14:26:28.671Z,19.90
2023-01-29T14:29:03.226Z,19.43
2023-01-29T14:31:38.902Z,19.27
2023-01-29T14:34:15.184Z,20.63
2023-01-29T14:36:50.451Z,20.40
2023-01-29T14:39:29.193Z,22.20
2023-01-29T14:42:06.702Z,21.30
2023-01-29T14:45:00.482Z,20.97
2023-01-29T14:47:59.545Z,21.27
2023-01-29T14:51:00.201Z,19.83
2023-01-29T14:53:46.687Z,20.70
2023-01-29T14:56:19.506Z,19.83
2023-01-29T14:58:51.024Z,19.00
2023-01-29T15:01:24.709Z,20.63
2023-01-29T15:03:58.435Z,21.43
2023-01-29T15:06:33.203Z,20.37
2023-01-29T15:09:11.135Z,20.77
2023-01-29T15:11:49.755Z,20.53
2023-01-29T15:14:31.159Z,19.57
2023-01-29T15:17:21.034Z,20.83
2023-01-29T15:19:50.596Z,20.03
2023-01-29T15:22:20.981Z,21.10
2023-01-29T15:25:07.668Z,20.37
2023-01-29T15:27:36.747Z,20.40
2023-01-29T15:30:08.630Z,20.33
2023-01-29T15:32:40.225Z,21.47
2023-01-29T15:35:12.428Z,19.57
2023-01-29T15:37:41.378Z,20.60
2023-01-29T15:40:17.951Z,20.77
2023-01-29T15:42:48.745Z,21.33
2023-01-29T15:45:25.883Z,20.93
2023-01-29T15:47:58.507Z,21.00
2023-01-29T15:50:27.477Z,23.53
2023-01-29T15:52:58.921Z,21.73
2023-01-29T15:55:32.370Z,23.40
2023-01-29T15:58:01.919Z,22.20
2023-01-29T16:00:31.637Z,22.27
2023-01-29T16:03:02.001Z,22.10
2023-01-29T16:05:33.134Z,21.53
2023-01-29T16:08:02.880Z,21.27
2023-01-29T16:10:35.692Z,22.07
2023-01-29T16:13:05.128Z,24.20
2023-01-29T16:15:35.939Z,22.30
2023-01-29T16:18:20.726Z,24.20
2023-01-29T16:20:53.589Z,22.30
2023-01-29T16:23:27.750Z,23.17
2023-01-29T16:26:04.501Z,22.23
2023-01-29T16:28:33.456Z,21.37
2023-01-29T16:31:04.566Z,23.37
2023-01-29T16:33:37.421Z,23.80
2023-01-29T16:36:13.955Z,24.17
2023-01-29T16:38:44.394Z,24.43
2023-01-29T16:41:30.929Z,24.03
2023-01-29T16:44:03.300Z,23.00
2023-01-29T16:46:36.577Z,22.77
2023-01-29T16:49:44.421Z,23.83
2023-01-29T16:52:19.936Z,22.90
2023-01-29T16:54:49.040Z,22.80
2023-01-29T16:57:23.739Z,24.13
2023-01-29T16:59:56.826Z,22.87
2023-01-29T17:02:28.831Z,23.87
2023-01-29T17:05:02.064Z,24.33
2023-01-29T17:07:32.489Z,24.53
2023-01-29T17:10:03.803Z,25.60
2023-01-29T17:12:36.275Z,26.33
2023-01-29T17:15:28.276Z,23.70
2023-01-29T17:17:57.281Z,25.30
2023-01-29T17:20:27.004Z,25.57
2023-01-29T17:22:56.700Z,26.07
2023-01-29T17:25:25.871Z,25.43
2023-01-29T17:27:56.353Z,25.00
2023-01-29T17:30:30.174Z,23.37
2023-01-29T17:32:58.951Z,24.13
2023-01-29T17:35:27.953Z,24.00
2023-01-29T17:37:56.967Z,24.57
2023-01-29T17:40:34.337Z,22.80
2023-01-29T17:43:05.090Z,23.13
2023-01-29T17:45:34.377Z,36.73
2023-01-29T17:48:03.316Z,29.50
2023-01-29T17:50:33.858Z,23.47
2023-01-29T17:53:03.145Z,21.60
2023-01-29T17:55:32.303Z,24.30
2023-01-29T17:58:01.201Z,22.70
2023-01-29T18:00:32.972Z,22.23
2023-01-29T18:03:03.121Z,21.73
2023-01-29T18:05:32.541Z,21.10
2023-01-29T18:08:02.222Z,21.50
2023-01-29T18:10:31.607Z,21.53
2023-01-29T18:13:00.903Z,21.33
2023-01-29T18:15:31.519Z,20.93
2023-01-29T18:18:00.438Z,20.70
2023-01-29T18:20:30.299Z,20.53
2023-01-29T18:23:04.089Z,20.13
2023-01-29T18:25:33.495Z,21.67
2023-01-29T18:28:03.272Z,19.57
2023-01-29T18:30:34.693Z,17.97
2023-01-29T18:33:03.829Z,19.47
2023-01-29T18:35:32.956Z,18.20
2023-01-29T18:38:02.134Z,18.53
2023-01-29T18:40:32.491Z,19.90
2023-01-29T18:43:01.709Z,18.67
2023-01-29T18:45:30.602Z,19.33
2023-01-29T18:48:00.774Z,19.27
2023-01-29T18:50:29.659Z,17.20
2023-01-29T18:52:58.854Z,18.87
2023-01-29T18:55:27.857Z,19.17
2023-01-29T18:58:31.738Z,19.60
2023-01-29T19:00:47.182Z,19.70
2023-01-29T19:03:18.145Z,18.87
2023-01-29T19:05:47.083Z,19.60
2023-01-29T19:08:15.816Z,18.77
2023-01-29T19:10:44.758Z,18.97
2023-01-29T19:13:14.004Z,18.60
2023-01-29T19:15:44.631Z,18.37
2023-01-29T19:18:14.707Z,18.10
2023-01-29T19:20:45.381Z,18.43
2023-01-29T19:23:14.665Z,17.10
2023-01-29T19:25:43.715Z,17.23
2023-01-29T19:28:12.785Z,17.77
2023-01-29T19:30:42.728Z,16.50
2023-01-29T19:33:12.575Z,17.70
2023-01-29T19:35:47.250Z,17.00
2023-01-29T19:38:21.040Z,17.30
2023-01-29T19:40:50.247Z,19.03
2023-01-29T19:43:19.333Z,17.10
2023-01-29T19:45:50.919Z,17.73
2023-01-29T19:48:21.833Z,17.33
2023-01-29T19:51:08.450Z,17.57
2023-01-29T19:53:39.165Z,16.63
2023-01-29T19:56:09.876Z,17.73
2023-01-29T19:58:39.822Z,17.47
2023-01-29T20:01:14.777Z,16.70
2023-01-29T20:03:46.494Z,16.73
2023-01-29T20:06:19.384Z,15.83
2023-01-29T20:08:48.838Z,16.57
2023-01-29T20:11:19.609Z,15.83
2023-01-29T20:13:50.341Z,15.83
2023-01-29T20:16:20.476Z,17.80
2023-01-29T20:18:49.790Z,15.90
2023-01-29T20:21:22.198Z,15.70
2023-01-29T20:23:53.238Z,15.73
2023-01-29T20:26:22.879Z,15.63
2023-01-29T20:28:52.239Z,15.20
2023-01-29T20:31:22.273Z,15.97
2023-01-29T20:33:51.515Z,15.03
2023-01-29T20:36:22.768Z,14.63
2023-01-29T20:38:51.852Z,15.07
2023-01-29T20:41:22.524Z,14.63
2023-01-29T20:43:52.460Z,15.07
2023-01-29T20:46:22.174Z,15.23
2023-01-29T20:48:54.161Z,15.53
2023-01-29T20:51:26.009Z,15.43
2023-01-29T20:53:55.984Z,15.30
2023-01-29T20:56:34.253Z,15.27
2023-01-29T20:59:09.215Z,15.53
2023-01-29T21:01:39.124Z,15.60
2023-01-29T21:04:08.372Z,15.37
2023-01-29T21:06:39.618Z,14.53
2023-01-29T21:09:09.277Z,16.30
2023-01-29T21:11:38.488Z,14.83
2023-01-29T21:14:07.593Z,14.83
2023-01-29T21:16:36.690Z,15.40
2023-01-29T21:19:05.462Z,14.77
2023-01-29T21:21:34.782Z,16.10
2023-01-29T21:24:05.560Z,16.00
2023-01-29T21:26:34.638Z,15.13
2023-01-29T21:29:03.718Z,15.07
2023-01-29T21:31:32.818Z,14.97
2023-01-29T21:34:01.762Z,14.57
2023-01-29T21:36:30.589Z,14.23
2023-01-29T21:38:59.405Z,13.30
2023-01-29T21:41:43.402Z,14.63
2023-01-29T21:44:12.664Z,13.87
2023-01-29T21:46:41.369Z,13.87
2023-01-29T21:49:10.211Z,14.33
2023-01-29T21:51:38.887Z,13.23
2023-01-29T21:54:07.912Z,13.53
2023-01-29T21:56:38.295Z,14.40
2023-01-29T21:59:07.751Z,13.40
2023-01-29T22:01:38.764Z,14.20
2023-01-29T22:04:09.771Z,13.87
2023-01-29T22:06:38.812Z,13.13
2023-01-29T22:09:07.878Z,15.27
2023-01-29T22:11:38.324Z,13.93
2023-01-29T22:14:07.034Z,14.83
2023-01-29T22:16:35.877Z,14.27
2023-01-29T22:19:04.753Z,13.77
2023-01-29T22:21:35.864Z,14.63
2023-01-29T22:24:05.436Z,13.50
2023-01-29T22:26:34.361Z,14.90
2023-01-29T22:29:05.257Z,13.03
2023-01-29T22:31:34.272Z,13.90
2023-01-29T22:34:03.769Z,12.77
2023-01-29T22:36:32.507Z,13.90
2023-01-29T22:39:01.240Z,13.60
2023-01-29T22:41:30.039Z,13.60
2023-01-29T22:43:59.013Z,13.93
2023-01-29T22:46:29.510Z,14.07
2023-01-29T22:48:58.632Z,13.43
2023-01-29T22:51:27.465Z,12.67
2023-01-29T22:53:57.819Z,12.90
2023-01-29T22:56:29.604Z,12.63
2023-01-29T22:58:59.965Z,13.10
2023-01-29T23:01:32.731Z,12.83
2023-01-29T23:04:01.600Z,13.00
2023-01-29T23:06:30.707Z,13.17
2023-01-29T23:08:59.531Z,12.10
2023-01-29T23:11:28.308Z,12.43
2023-01-29T23:13:57.290Z,13.63
2023-01-29T23:16:28.333Z,12.00
2023-01-29T23:18:58.845Z,12.60
2023-01-29T23:21:28.592Z,12.50
2023-01-29T23:23:58.413Z,13.30
2023-01-29T23:26:44.962Z,12.70
2023-01-29T23:29:14.313Z,13.10
2023-01-29T23:31:43.178Z,12.53
2023-01-29T23:34:13.746Z,13.57
2023-01-29T23:36:42.525Z,12.43
2023-01-29T23:39:11.727Z,13.83
2023-01-29T23:41:40.476Z,12.97
2023-01-29T23:44:09.360Z,13.37
2023-01-29T23:46:38.441Z,12.87
2023-01-29T23:49:07.341Z,12.77
2023-01-29T23:51:38.015Z,12.40
2023-01-29T23:54:07.419Z,12.27
2023-01-29T23:56:36.396Z,12.20
2023-01-29T23:59:05.378Z,11.97
